createdAt,value
2022-07-29T00:00:02.637Z,2.90
2022-07-29T00:06:35.113Z,2.40
2022-07-29T00:12:43.202Z,2.80
2022-07-29T00:18:15.326Z,2.30
2022-07-29T00:24:29.003Z,2.10
2022-07-29T00:29:43.331Z,2.80
2022-07-29T00:36:05.559Z,2.50
2022-07-29T00:42:02.599Z,2.50
2022-07-29T00:47:27.383Z,2.90
2022-07-29T00:53:38.594Z,3.20
2022-07-29T00:59:06.575Z,2.70
2022-07-29T01:05:14.860Z,3.30
2022-07-29T01:10:40.547Z,2.70
2022-07-29T01:16:10.661Z,3.00
2022-07-29T01:22:29.221Z,2.90
2022-07-29T01:28:36.613Z,2.60
2022-07-29T01:34:44.513Z,2.50
2022-07-29T01:40:14.307Z,3.00
2022-07-29T01:46:01.873Z,2.50
2022-07-29T01:51:28.297Z,2.90
2022-07-29T01:57:26.243Z,2.30
2022-07-29T02:03:19.293Z,2.70
2022-07-29T02:09:45.881Z,2.70
2022-07-29T02:15:52.023Z,3.50
2022-07-29T02:21:30.247Z,2.30
2022-07-29T02:27:35.437Z,3.00
2022-07-29T02:33:04.000Z,2.40
2022-07-29T02:38:56.689Z,2.70
2022-07-29T02:44:25.921Z,2.60
2022-07-29T02:50:36.971Z,2.80
2022-07-29T02:56:54.026Z,1.90
2022-07-29T03:10:26.226Z,1.70
2022-07-29T03:15:55.435Z,1.70
2022-07-29T03:27:38.485Z,1.00
2022-07-29T03:33:41.487Z,1.10
2022-07-29T03:39:19.334Z,0.90
2022-07-29T03:44:28.138Z,1.50
2022-07-29T03:49:40.418Z,1.80
2022-07-29T03:54:59.442Z,2.00
2022-07-29T04:00:26.673Z,2.10
2022-07-29T04:06:43.893Z,2.50
2022-07-29T04:12:40.533Z,2.80
2022-07-29T04:18:26.584Z,2.70
2022-07-29T04:23:34.622Z,3.20
2022-07-29T04:28:58.001Z,4.10
2022-07-29T04:34:11.596Z,3.40
2022-07-29T04:39:27.261Z,2.60
2022-07-29T04:44:37.232Z,1.90
2022-07-29T04:49:43.568Z,1.70
2022-07-29T04:55:50.515Z,1.90
2022-07-29T05:01:09.042Z,2.40
2022-07-29T05:06:25.660Z,2.50
2022-07-29T05:11:31.992Z,2.60
2022-07-29T05:16:48.897Z,2.90
2022-07-29T05:21:55.499Z,2.50
2022-07-29T05:26:59.259Z,2.20
2022-07-29T05:32:05.263Z,2.40
2022-07-29T05:37:21.403Z,2.10
2022-07-29T05:42:30.336Z,1.80
2022-07-29T05:47:36.318Z,1.10
2022-07-29T05:52:42.477Z,1.40
2022-07-29T05:57:56.123Z,0.80
2022-07-29T06:03:19.809Z,0.80
2022-07-29T06:08:23.361Z,0.60
2022-07-29T06:13:26.572Z,0.60
2022-07-29T06:18:35.399Z,0.70
2022-07-29T06:23:40.582Z,0.80
2022-07-29T06:28:43.940Z,0.70
2022-07-29T06:33:49.677Z,0.70
2022-07-29T06:38:57.983Z,0.70
2022-07-29T06:44:01.408Z,0.50
2022-07-29T06:49:05.628Z,0.80
2022-07-29T06:54:08.958Z,0.80
2022-07-29T06:59:13.699Z,0.60
2022-07-29T07:04:30.093Z,0.70
2022-07-29T07:09:40.641Z,0.70
2022-07-29T07:14:47.701Z,0.70
2022-07-29T07:20:05.459Z,0.50
2022-07-29T07:25:11.902Z,0.40
2022-07-29T07:30:15.783Z,0.40
2022-07-29T07:35:19.454Z,0.40
2022-07-29T07:40:25.280Z,0.50
2022-07-29T07:45:33.678Z,0.50
2022-07-29T07:50:38.095Z,0.60
2022-07-29T08:01:07.237Z,0.60
2022-07-29T08:06:12.946Z,0.50
2022-07-29T08:11:16.670Z,0.50
2022-07-29T08:16:20.098Z,0.60
2022-07-29T08:21:27.011Z,0.60
2022-07-29T08:26:33.373Z,0.60
2022-07-29T08:31:38.411Z,0.40
2022-07-29T08:36:41.888Z,0.50
2022-07-29T08:41:57.362Z,0.40
2022-07-29T08:47:06.458Z,0.50
2022-07-29T08:52:12.825Z,0.50
2022-07-29T08:57:51.112Z,0.40
2022-07-29T09:03:00.401Z,0.50
2022-07-29T09:08:06.441Z,0.50
2022-07-29T09:13:12.454Z,0.70
2022-07-29T09:18:48.276Z,0.80
2022-07-29T09:24:46.708Z,0.50
2022-07-29T09:30:13.646Z,0.70
2022-07-29T09:35:57.183Z,0.80
2022-07-29T09:41:11.327Z,0.60
2022-07-29T09:46:20.359Z,0.50
2022-07-29T09:51:38.316Z,0.50
2022-07-29T09:56:45.154Z,0.60
2022-07-29T10:01:51.784Z,0.50
2022-07-29T10:07:05.360Z,0.70
2022-07-29T10:12:16.765Z,0.60
2022-07-29T10:17:22.958Z,0.40
2022-07-29T10:22:51.426Z,0.60
2022-07-29T10:27:55.019Z,0.70
2022-07-29T10:33:32.320Z,0.70
2022-07-29T10:39:03.273Z,0.50
2022-07-29T10:44:17.435Z,0.30
2022-07-29T10:49:33.277Z,0.70
2022-07-29T10:54:37.237Z,0.40
2022-07-29T10:59:53.237Z,0.50
2022-07-29T11:04:56.702Z,0.60
2022-07-29T11:16:06.569Z,0.50
2022-07-29T11:21:53.931Z,0.60
2022-07-29T11:27:28.561Z,0.40
2022-07-29T11:32:59.794Z,1.00
2022-07-29T11:38:31.631Z,0.40
2022-07-29T11:43:56.123Z,0.60
2022-07-29T11:49:01.280Z,0.60
2022-07-29T11:54:06.522Z,0.40
2022-07-29T11:59:32.982Z,0.50
2022-07-29T12:05:02.066Z,0.60
2022-07-29T12:10:31.922Z,0.70
2022-07-29T12:16:00.109Z,0.50
2022-07-29T12:21:09.623Z,0.40
2022-07-29T12:26:25.342Z,0.60
2022-07-29T12:31:41.960Z,0.60
2022-07-29T12:36:48.401Z,0.40
2022-07-29T12:42:04.802Z,0.60
2022-07-29T12:47:10.812Z,0.70
2022-07-29T12:52:33.927Z,0.60
2022-07-29T12:57:48.855Z,0.40
2022-07-29T13:03:02.466Z,0.80
2022-07-29T13:08:21.952Z,0.50
2022-07-29T13:13:31.081Z,0.50
2022-07-29T13:18:37.557Z,0.50
2022-07-29T13:23:44.131Z,0.70
2022-07-29T13:28:47.443Z,0.30
2022-07-29T13:33:51.007Z,0.60
2022-07-29T13:39:02.126Z,0.50
2022-07-29T13:44:05.459Z,0.60
2022-07-29T13:49:08.993Z,0.40
2022-07-29T13:54:12.369Z,0.50
2022-07-29T13:59:20.045Z,0.60
2022-07-29T14:04:24.493Z,0.40
2022-07-29T14:09:28.297Z,1.30
2022-07-29T14:14:33.545Z,2.20
2022-07-29T14:19:39.098Z,2.60
2022-07-29T14:24:42.647Z,1.60
2022-07-29T14:29:47.079Z,0.50
2022-07-29T14:34:53.494Z,0.60
2022-07-29T14:40:00.840Z,0.40
2022-07-29T14:45:09.228Z,0.40
2022-07-29T14:50:13.307Z,0.50
2022-07-29T14:55:20.127Z,0.40
2022-07-29T15:00:23.798Z,0.50
2022-07-29T15:05:27.939Z,0.50
2022-07-29T15:10:40.156Z,0.50
2022-07-29T15:15:44.164Z,0.50
2022-07-29T15:20:47.783Z,0.50
2022-07-29T15:25:51.105Z,0.60
2022-07-29T15:30:57.427Z,0.70
2022-07-29T15:36:00.903Z,0.50
2022-07-29T15:41:04.240Z,0.60
2022-07-29T15:46:26.304Z,0.70
2022-07-29T15:51:29.686Z,0.80
2022-07-29T15:56:36.635Z,0.40
2022-07-29T16:01:42.500Z,0.40
2022-07-29T16:06:48.010Z,0.70
2022-07-29T16:11:53.785Z,0.40
2022-07-29T16:16:57.371Z,0.60
2022-07-29T16:22:00.951Z,0.40
2022-07-29T16:27:04.571Z,0.60
2022-07-29T16:32:10.328Z,0.50
2022-07-29T16:37:16.369Z,0.50
2022-07-29T16:42:36.995Z,0.50
2022-07-29T16:47:46.427Z,0.60
2022-07-29T16:52:49.936Z,0.50
2022-07-29T16:57:53.179Z,0.60
2022-07-29T17:02:56.666Z,0.50
2022-07-29T17:07:59.824Z,0.70
2022-07-29T17:13:02.943Z,0.50
2022-07-29T17:18:12.720Z,0.80
2022-07-29T17:23:16.589Z,0.50
2022-07-29T17:28:20.200Z,0.40
2022-07-29T17:33:23.378Z,0.50
2022-07-29T17:38:26.771Z,0.70
2022-07-29T17:43:30.017Z,1.20
2022-07-29T17:48:33.284Z,1.00
2022-07-29T17:53:38.321Z,1.30
2022-07-29T17:58:42.115Z,1.90
2022-07-29T18:03:48.781Z,1.00
2022-07-29T18:08:52.738Z,0.90
2022-07-29T18:13:59.051Z,0.90
2022-07-29T18:19:08.940Z,1.20
2022-07-29T18:24:17.642Z,1.50
2022-07-29T18:29:24.244Z,1.30
2022-07-29T18:34:30.571Z,1.80
2022-07-29T18:39:36.885Z,2.40
2022-07-29T18:44:43.666Z,2.90
2022-07-29T18:49:49.820Z,1.60
2022-07-29T18:54:53.361Z,1.10
2022-07-29T18:59:56.595Z,1.00
2022-07-29T19:05:00.213Z,1.10
2022-07-29T19:10:04.056Z,1.30
2022-07-29T19:15:08.355Z,1.10
2022-07-29T19:20:12.230Z,1.20
2022-07-29T19:25:15.590Z,3.00
2022-07-29T19:30:18.920Z,1.70
2022-07-29T19:35:24.834Z,0.90
2022-07-29T19:40:30.266Z,1.10
2022-07-29T19:45:34.403Z,0.90
2022-07-29T19:50:37.721Z,1.00
2022-07-29T19:55:43.227Z,0.90
2022-07-29T20:00:50.414Z,0.90
2022-07-29T20:05:54.511Z,1.10
2022-07-29T20:10:57.926Z,1.40
2022-07-29T20:16:05.568Z,1.60
2022-07-29T20:21:09.148Z,1.60
2022-07-29T20:26:12.903Z,1.80
2022-07-29T20:31:17.081Z,1.60
2022-07-29T20:36:20.560Z,1.60
2022-07-29T20:41:23.904Z,1.50
2022-07-29T20:46:27.515Z,1.80
2022-07-29T20:51:30.697Z,1.30
2022-07-29T20:56:36.066Z,1.30
2022-07-29T21:01:39.590Z,2.00
2022-07-29T21:06:42.835Z,2.10
2022-07-29T21:11:46.691Z,1.40
2022-07-29T21:16:50.923Z,1.80
2022-07-29T21:21:54.229Z,1.70
2022-07-29T21:27:21.778Z,1.40
2022-07-29T21:32:30.055Z,1.70
2022-07-29T21:37:33.945Z,1.70
2022-07-29T21:42:39.914Z,2.40
2022-07-29T21:47:43.199Z,1.80
2022-07-29T21:52:46.499Z,1.50
2022-07-29T21:57:50.957Z,1.90
2022-07-29T22:02:54.533Z,2.00
2022-07-29T22:07:58.734Z,1.80
2022-07-29T22:13:03.574Z,1.60
